sensor_id;sensor_type;location;lat;lon;timestamp;pressure;altitude;pressure_sealevel;temperature;humidity
38303;BME280;24103;42.454;27.400;2023-01-31T00:01:16;100301.50;;;-1.38;100.00
38303;BME280;24103;42.454;27.400;2023-01-31T00:03:42;100290.25;;;-1.39;100.00
38303;BME280;24103;42.454;27.400;2023-01-31T00:06:08;100297.13;;;-1.35;100.00
38303;BME280;24103;42.454;27.400;2023-01-31T00:08:33;100303.94;;;-1.27;100.00
38303;BME280;24103;42.454;27.400;2023-01-31T00:10:59;100296.97;;;-1.24;100.00
38303;BME280;24103;42.454;27.400;2023-01-31T00:13:24;100297.84;;;-1.22;100.00
38303;BME280;24103;42.454;27.400;2023-01-31T00:15:51;100307.19;;;-1.12;100.00
38303;BME280;24103;42.454;27.400;2023-01-31T00:18:16;100296.75;;;-1.07;100.00
38303;BME280;24103;42.454;27.400;2023-01-31T00:20:41;100304.44;;;-1.01;100.00
38303;BME280;24103;42.454;27.400;2023-01-31T00:23:07;100301.81;;;-0.99;100.00
38303;BME280;24103;42.454;27.400;2023-01-31T00:25:32;100301.78;;;-0.96;100.00
38303;BME280;24103;42.454;27.400;2023-01-31T00:27:57;100303.50;;;-0.94;100.00
38303;BME280;24103;42.454;27.400;2023-01-31T00:30:22;100298.28;;;-0.94;100.00
38303;BME280;24103;42.454;27.400;2023-01-31T00:32:48;100296.56;;;-0.93;100.00
38303;BME280;24103;42.454;27.400;2023-01-31T00:35:13;100299.16;;;-0.93;100.00
38303;BME280;24103;42.454;27.400;2023-01-31T00:37:38;100303.53;;;-0.98;100.00
38303;BME280;24103;42.454;27.400;2023-01-31T00:40:04;100298.38;;;-1.00;100.00
38303;BME280;24103;42.454;27.400;2023-01-31T00:42:29;100301.81;;;-0.98;100.00
38303;BME280;24103;42.454;27.400;2023-01-31T00:44:55;100294.81;;;-0.93;100.00
38303;BME280;24103;42.454;27.400;2023-01-31T00:47:20;100281.84;;;-0.93;100.00
38303;BME280;24103;42.454;27.400;2023-01-31T00:49:45;100282.69;;;-0.89;100.00
38303;BME280;24103;42.454;27.400;2023-01-31T00:52:10;100281.84;;;-0.93;100.00
38303;BME280;24103;42.454;27.400;2023-01-31T00:54:36;100280.22;;;-1.00;100.00
38303;BME280;24103;42.454;27.400;2023-01-31T00:57:01;100279.47;;;-1.08;100.00
38303;BME280;24103;42.454;27.400;2023-01-31T00:59:28;100276.16;;;-1.18;100.00
38303;BME280;24103;42.454;27.400;2023-01-31T01:01:53;100277.06;;;-1.20;100.00
38303;BME280;24103;42.454;27.400;2023-01-31T01:04:19;100282.31;;;-1.23;100.00
38303;BME280;24103;42.454;27.400;2023-01-31T01:06:44;100271.13;;;-1.28;100.00
38303;BME280;24103;42.454;27.400;2023-01-31T01:09:11;100265.25;;;-1.40;100.00
38303;BME280;24103;42.454;27.400;2023-01-31T01:11:37;100268.69;;;-1.39;100.00
38303;BME280;24103;42.454;27.400;2023-01-31T01:14:02;100267.91;;;-1.48;100.00
38303;BME280;24103;42.454;27.400;2023-01-31T01:16:32;100261.16;;;-1.59;100.00
38303;BME280;24103;42.454;27.400;2023-01-31T01:18:59;100264.75;;;-1.68;100.00
38303;BME280;24103;42.454;27.400;2023-01-31T01:21:26;100270.00;;;-1.77;100.00
38303;BME280;24103;42.454;27.400;2023-01-31T01:23:52;100270.97;;;-1.83;100.00
38303;BME280;24103;42.454;27.400;2023-01-31T01:26:21;100274.41;;;-1.84;100.00
38303;BME280;24103;42.454;27.400;2023-01-31T01:28:47;100264.91;;;-1.83;100.00
38303;BME280;24103;42.454;27.400;2023-01-31T01:31:13;100260.69;;;-1.92;100.00
38303;BME280;24103;42.454;27.400;2023-01-31T01:33:40;100257.31;;;-2.00;100.00
38303;BME280;24103;42.454;27.400;2023-01-31T01:36:06;100261.78;;;-2.15;100.00
38303;BME280;24103;42.454;27.400;2023-01-31T01:38:33;100251.47;;;-2.18;100.00
38303;BME280;24103;42.454;27.400;2023-01-31T01:40:59;100247.16;;;-2.17;100.00
38303;BME280;24103;42.454;27.400;2023-01-31T01:46:05;100240.16;;;-2.08;100.00
38303;BME280;24103;42.454;27.400;2023-01-31T01:48:31;100245.41;;;-2.14;100.00
38303;BME280;24103;42.454;27.400;2023-01-31T01:50:56;100238.50;;;-2.15;100.00
38303;BME280;24103;42.454;27.400;2023-01-31T01:53:23;100239.34;;;-2.13;100.00
38303;BME280;24103;42.454;27.400;2023-01-31T01:55:56;100240.19;;;-2.11;100.00
38303;BME280;24103;42.454;27.400;2023-01-31T01:58:28;100229.81;;;-2.08;100.00
38303;BME280;24103;42.454;27.400;2023-01-31T02:00:55;100227.25;;;-2.11;100.00
38303;BME280;24103;42.454;27.400;2023-01-31T02:03:20;100222.09;;;-2.14;100.00
38303;BME280;24103;42.454;27.400;2023-01-31T02:05:47;100221.28;;;-2.19;100.00
38303;BME280;24103;42.454;27.400;2023-01-31T02:08:14;100217.78;;;-2.13;100.00
38303;BME280;24103;42.454;27.400;2023-01-31T02:11:27;100222.09;;;-2.14;100.00
38303;BME280;24103;42.454;27.400;2023-01-31T02:13:26;100216.00;;;-2.11;100.00
38303;BME280;24103;42.454;27.400;2023-01-31T02:15:52;100210.00;;;-2.12;100.00
38303;BME280;24103;42.454;27.400;2023-01-31T02:18:18;100216.16;;;-2.22;100.00
38303;BME280;24103;42.454;27.400;2023-01-31T02:34:18;100230.34;;;-1.79;100.00
38303;BME280;24103;42.454;27.400;2023-01-31T02:36:50;100235.31;;;-1.65;100.00
38303;BME280;24103;42.454;27.400;2023-01-31T02:42:06;100237.75;;;-1.50;100.00
38303;BME280;24103;42.454;27.400;2023-01-31T02:49:55;100232.88;;;-1.14;100.00
38303;BME280;24103;42.454;27.400;2023-01-31T02:54:57;100224.09;;;-1.02;100.00
38303;BME280;24103;42.454;27.400;2023-01-31T02:57:43;100240.31;;;-0.91;100.00
38303;BME280;24103;42.454;27.400;2023-01-31T03:00:10;100225.50;;;-0.84;100.00
38303;BME280;24103;42.454;27.400;2023-01-31T03:02:36;100223.69;;;-0.78;100.00
38303;BME280;24103;42.454;27.400;2023-01-31T03:05:01;100224.41;;;-0.69;100.00
38303;BME280;24103;42.454;27.400;2023-01-31T03:07:28;100228.66;;;-0.65;100.00
38303;BME280;24103;42.454;27.400;2023-01-31T03:12:35;100226.03;;;-0.62;100.00
38303;BME280;24103;42.454;27.400;2023-01-31T03:17:58;100228.97;;;-0.82;100.00
38303;BME280;24103;42.454;27.400;2023-01-31T03:20:31;100230.03;;;-0.96;100.00
38303;BME280;24103;42.454;27.400;2023-01-31T03:23:00;100228.34;;;-0.98;100.00
38303;BME280;24103;42.454;27.400;2023-01-31T03:25:27;100230.88;;;-0.95;100.00
38303;BME280;24103;42.454;27.400;2023-01-31T03:27:54;100229.06;;;-0.90;100.00
38303;BME280;24103;42.454;27.400;2023-01-31T03:30:23;100229.13;;;-0.93;100.00
38303;BME280;24103;42.454;27.400;2023-01-31T03:33:00;100227.41;;;-0.94;100.00
38303;BME280;24103;42.454;27.400;2023-01-31T03:35:28;100232.50;;;-0.89;100.00
38303;BME280;24103;42.454;27.400;2023-01-31T03:37:57;100231.56;;;-0.82;100.00
38303;BME280;24103;42.454;27.400;2023-01-31T03:40:26;100230.53;;;-0.73;100.00
38303;BME280;24103;42.454;27.400;2023-01-31T03:42:59;100239.91;;;-0.66;100.00
38303;BME280;24103;42.454;27.400;2023-01-31T03:45:32;100225.97;;;-0.58;100.00
38303;BME280;24103;42.454;27.400;2023-01-31T03:47:59;100225.81;;;-0.50;100.00
38303;BME280;24103;42.454;27.400;2023-01-31T03:50:35;100222.13;;;-0.38;100.00
38303;BME280;24103;42.454;27.400;2023-01-31T03:53:13;100219.44;;;-0.33;100.00
38303;BME280;24103;42.454;27.400;2023-01-31T03:55:42;100216.81;;;-0.30;100.00
38303;BME280;24103;42.454;27.400;2023-01-31T03:58:09;100215.03;;;-0.28;100.00
38303;BME280;24103;42.454;27.400;2023-01-31T04:00:36;100218.47;;;-0.26;100.00
38303;BME280;24103;42.454;27.400;2023-01-31T04:03:15;100227.16;;;-0.29;100.00
38303;BME280;24103;42.454;27.400;2023-01-31T04:05:42;100225.41;;;-0.28;100.00
38303;BME280;24103;42.454;27.400;2023-01-31T04:08:07;100228.88;;;-0.26;100.00
38303;BME280;24103;42.454;27.400;2023-01-31T04:10:33;100231.50;;;-0.28;100.00
38303;BME280;24103;42.454;27.400;2023-01-31T04:12:58;100233.94;;;-0.22;100.00
38303;BME280;24103;42.454;27.400;2023-01-31T04:15:24;100237.41;;;-0.20;100.00
38303;BME280;24103;42.454;27.400;2023-01-31T04:17:49;100241.66;;;-0.17;100.00
38303;BME280;24103;42.454;27.400;2023-01-31T04:20:14;100230.41;;;-0.16;100.00
38303;BME280;24103;42.454;27.400;2023-01-31T04:22:40;100238.41;;;-0.30;100.00
38303;BME280;24103;42.454;27.400;2023-01-31T04:25:05;100247.19;;;-0.35;100.00
38303;BME280;24103;42.454;27.400;2023-01-31T04:27:32;100248.06;;;-0.37;100.00
38303;BME280;24103;42.454;27.400;2023-01-31T04:29:57;100251.59;;;-0.39;100.00
38303;BME280;24103;42.454;27.400;2023-01-31T04:32:22;100246.22;;;-0.30;100.00
38303;BME280;24103;42.454;27.400;2023-01-31T04:34:48;100253.03;;;-0.23;100.00
38303;BME280;24103;42.454;27.400;2023-01-31T04:37:14;100248.50;;;-0.11;100.00
38303;BME280;24103;42.454;27.400;2023-01-31T04:39:39;100242.34;;;-0.07;100.00
38303;BME280;24103;42.454;27.400;2023-01-31T04:42:05;100246.63;;;-0.05;100.00
38303;BME280;24103;42.454;27.400;2023-01-31T04:44:30;100251.03;;;-0.08;100.00
38303;BME280;24103;42.454;27.400;2023-01-31T04:46:55;100250.94;;;-0.05;100.00
38303;BME280;24103;42.454;27.400;2023-01-31T04:49:22;100255.31;;;-0.07;100.00
38303;BME280;24103;42.454;27.400;2023-01-31T04:51:48;100253.34;;;0.06;100.00
38303;BME280;24103;42.454;27.400;2023-01-31T04:54:13;100252.31;;;0.14;100.00
38303;BME280;24103;42.454;27.400;2023-01-31T04:56:39;100256.56;;;0.20;100.00
38303;BME280;24103;42.454;27.400;2023-01-31T04:59:04;100261.59;;;0.26;100.00
38303;BME280;24103;42.454;27.400;2023-01-31T05:01:30;100262.41;;;0.30;100.00
38303;BME280;24103;42.454;27.400;2023-01-31T05:03:55;100261.50;;;0.31;100.00
38303;BME280;24103;42.454;27.400;2023-01-31T05:06:21;100261.47;;;0.34;100.00
38303;BME280;24103;42.454;27.400;2023-01-31T05:08:46;100264.94;;;0.33;100.00
38303;BME280;24103;42.454;27.400;2023-01-31T05:11:12;100274.03;;;0.12;100.00
38303;BME280;24103;42.454;27.400;2023-01-31T05:13:37;100286.31;;;0.04;100.00
38303;BME280;24103;42.454;27.400;2023-01-31T05:16:07;100290.66;;;0.02;100.00
38303;BME280;24103;42.454;27.400;2023-01-31T05:18:33;100281.97;;;0.03;100.00
38303;BME280;24103;42.454;27.400;2023-01-31T05:20:59;100290.03;;;-0.10;100.00
38303;BME280;24103;42.454;27.400;2023-01-31T05:23:24;100286.53;;;-0.09;100.00
38303;BME280;24103;42.454;27.400;2023-01-31T05:25:50;100289.94;;;-0.07;100.00
38303;BME280;24103;42.454;27.400;2023-01-31T05:28:15;100287.16;;;0.04;100.00
38303;BME280;24103;42.454;27.400;2023-01-31T05:30:41;100288.78;;;0.08;100.00
38303;BME280;24103;42.454;27.400;2023-01-31T05:33:06;100287.06;;;0.09;100.00
38303;BME280;24103;42.454;27.400;2023-01-31T05:35:31;100286.13;;;0.13;100.00
38303;BME280;24103;42.454;27.400;2023-01-31T05:37:57;100287.00;;;0.13;100.00
38303;BME280;24103;42.454;27.400;2023-01-31T05:40:23;100285.97;;;0.21;100.00
38303;BME280;24103;42.454;27.400;2023-01-31T05:42:49;100294.44;;;0.30;100.00
38303;BME280;24103;42.454;27.400;2023-01-31T05:45:18;100294.50;;;0.27;100.00
38303;BME280;24103;42.454;27.400;2023-01-31T05:47:44;100304.94;;;0.26;100.00
38303;BME280;24103;42.454;27.400;2023-01-31T05:50:10;100301.50;;;0.24;100.00
38303;BME280;24103;42.454;27.400;2023-01-31T05:52:35;100303.28;;;0.22;100.00
38303;BME280;24103;42.454;27.400;2023-01-31T05:55:01;100303.97;;;0.31;100.00
38303;BME280;24103;42.454;27.400;2023-01-31T05:57:26;100301.25;;;0.36;100.00
38303;BME280;24103;42.454;27.400;2023-01-31T05:59:52;100300.28;;;0.43;100.00
38303;BME280;24103;42.454;27.400;2023-01-31T06:02:17;100298.50;;;0.45;100.00
38303;BME280;24103;42.454;27.400;2023-01-31T06:04:43;100294.88;;;0.52;100.00
38303;BME280;24103;42.454;27.400;2023-01-31T06:07:08;100298.25;;;0.56;100.00
38303;BME280;24103;42.454;27.400;2023-01-31T06:09:33;100305.91;;;0.64;100.00
38303;BME280;24103;42.454;27.400;2023-01-31T06:11:59;100306.91;;;0.58;100.00
38303;BME280;24103;42.454;27.400;2023-01-31T06:14:24;100305.84;;;0.67;100.00
38303;BME280;24103;42.454;27.400;2023-01-31T06:16:50;100313.56;;;0.71;100.00
38303;BME280;24103;42.454;27.400;2023-01-31T06:19:15;100315.34;;;0.69;100.00
38303;BME280;24103;42.454;27.400;2023-01-31T06:21:41;100313.63;;;0.67;100.00
38303;BME280;24103;42.454;27.400;2023-01-31T06:24:07;100318.09;;;0.62;100.00
38303;BME280;24103;42.454;27.400;2023-01-31T06:26:33;100311.25;;;0.56;100.00
38303;BME280;24103;42.454;27.400;2023-01-31T06:28:58;100313.91;;;0.54;100.00
38303;BME280;24103;42.454;27.400;2023-01-31T06:31:24;100320.03;;;0.50;100.00
38303;BME280;24103;42.454;27.400;2023-01-31T06:33:49;100317.28;;;0.60;100.00
38303;BME280;24103;42.454;27.400;2023-01-31T06:36:15;100323.28;;;0.62;100.00
38303;BME280;24103;42.454;27.400;2023-01-31T06:38:40;100318.06;;;0.63;100.00
38303;BME280;24103;42.454;27.400;2023-01-31T06:41:05;100315.53;;;0.59;100.00
38303;BME280;24103;42.454;27.400;2023-01-31T06:43:32;100322.41;;;0.63;100.00
38303;BME280;24103;42.454;27.400;2023-01-31T06:45:57;100313.44;;;0.78;100.00
38303;BME280;24103;42.454;27.400;2023-01-31T06:48:22;100319.38;;;0.83;100.00
38303;BME280;24103;42.454;27.400;2023-01-31T06:50:48;100316.53;;;0.94;100.00
38303;BME280;24103;42.454;27.400;2023-01-31T06:53:13;100313.81;;;1.00;100.00
38303;BME280;24103;42.454;27.400;2023-01-31T06:55:38;100311.06;;;1.06;100.00
38303;BME280;24103;42.454;27.400;2023-01-31T06:58:04;100311.78;;;1.13;100.00
38303;BME280;24103;42.454;27.400;2023-01-31T07:00:29;100310.72;;;1.21;100.00
38303;BME280;24103;42.454;27.400;2023-01-31T07:02:55;100319.41;;;1.20;100.00
38303;BME280;24103;42.454;27.400;2023-01-31T07:05:20;100322.72;;;1.27;100.00
38303;BME280;24103;42.454;27.400;2023-01-31T07:07:46;100314.84;;;1.30;100.00
38303;BME280;24103;42.454;27.400;2023-01-31T07:10:12;100316.69;;;1.25;100.00
38303;BME280;24103;42.454;27.400;2023-01-31T07:12:38;100334.72;;;1.34;100.00
38303;BME280;24103;42.454;27.400;2023-01-31T07:15:04;100336.28;;;1.41;100.00
38303;BME280;24103;42.454;27.400;2023-01-31T07:17:29;100335.25;;;1.49;100.00
38303;BME280;24103;42.454;27.400;2023-01-31T07:19:54;100341.13;;;1.57;100.00
38303;BME280;24103;42.454;27.400;2023-01-31T07:22:20;100333.16;;;1.63;100.00
38303;BME280;24103;42.454;27.400;2023-01-31T07:24:45;100346.03;;;1.69;100.00
38303;BME280;24103;42.454;27.400;2023-01-31T07:27:11;100348.69;;;1.68;100.00
38303;BME280;24103;42.454;27.400;2023-01-31T07:29:37;100342.44;;;1.73;100.00
38303;BME280;24103;42.454;27.400;2023-01-31T07:32:02;100352.03;;;1.73;100.00
38303;BME280;24103;42.454;27.400;2023-01-31T07:34:27;100343.28;;;1.75;100.00
38303;BME280;24103;42.454;27.400;2023-01-31T07:36:53;100344.03;;;1.80;100.00
38303;BME280;24103;42.454;27.400;2023-01-31T07:39:18;100343.22;;;1.78;100.00
38303;BME280;24103;42.454;27.400;2023-01-31T07:41:44;100341.16;;;1.90;100.00
38303;BME280;24103;42.454;27.400;2023-01-31T07:44:09;100347.69;;;2.06;100.00
38303;BME280;24103;42.454;27.400;2023-01-31T07:46:34;100337.16;;;2.11;100.00
38303;BME280;24103;42.454;27.400;2023-01-31T07:49:00;100336.84;;;2.23;100.00
38303;BME280;24103;42.454;27.400;2023-01-31T07:51:25;100326.91;;;2.36;100.00
38303;BME280;24103;42.454;27.400;2023-01-31T07:53:51;100335.22;;;2.50;100.00
38303;BME280;24103;42.454;27.400;2023-01-31T07:56:17;100326.81;;;2.70;100.00
38303;BME280;24103;42.454;27.400;2023-01-31T07:58:43;100330.59;;;2.90;100.00
38303;BME280;24103;42.454;27.400;2023-01-31T08:01:14;100321.25;;;3.12;100.00
38303;BME280;24103;42.454;27.400;2023-01-31T08:03:58;100319.56;;;3.38;100.00
38303;BME280;24103;42.454;27.400;2023-01-31T08:06:24;100314.69;;;3.54;100.00
38303;BME280;24103;42.454;27.400;2023-01-31T08:08:49;100316.50;;;3.79;100.00
38303;BME280;24103;42.454;27.400;2023-01-31T08:11:14;100322.28;;;3.88;100.00
